Time;durP1;ratioP1;P1;durP2;ratioP2;P2;SDS_P1;SDS_P2;PMS_P1;PMS_P2;Temp;Humidity;BMP_temperature;BMP_pressure;BME280_temperature;BME280_humidity;BME280_pressure;Samples;Min_cycle;Max_cycle;Signal;HPM_P1;HPM_P2
2022/01/11 00:00:30;;;;;;;34.92;20.83;;;1.50;99.90;;;;;;5095164;28;20468;-75
2022/01/11 00:02:56;;;;;;;29.83;19.48;;;1.40;99.90;;;;;;5094913;28;20079;-75
2022/01/11 00:05:33;;;;;;;34.40;20.90;;;1.50;99.90;;;;;;5095403;28;20040;-75
2022/01/11 00:07:59;;;;;;;36.75;21.40;;;1.50;99.90;;;;;;5095036;28;20131;-75
2022/01/11 00:10:30;;;;;;;34.97;20.20;;;1.50;99.90;;;;;;5077166;28;20105;-75
2022/01/11 00:12:57;;;;;;;29.80;18.02;;;1.40;99.90;;;;;;5094762;28;20044;-75
2022/01/11 00:15:23;;;;;;;29.02;18.70;;;1.50;99.90;;;;;;5093671;28;20079;-75
2022/01/11 00:17:50;;;;;;;32.47;20.13;;;1.40;99.90;;;;;;5094844;28;20091;-75
2022/01/11 00:20:16;;;;;;;31.13;19.05;;;1.40;99.90;;;;;;5094664;28;20046;-75
2022/01/11 00:24:27;;;;;;;31.30;19.65;;;1.40;99.90;;;;;;5094769;28;20431;-75
2022/01/11 00:25:30;;;;;;;33.15;17.27;;;1.40;99.90;;;;;;5094795;28;20059;-75
2022/01/11 00:27:57;;;;;;;29.33;19.05;;;1.50;99.90;;;;;;5094347;28;20052;-75
2022/01/11 00:30:29;;;;;;;29.33;19.00;;;1.30;99.90;;;;;;5094624;28;20054;-74
2022/01/11 00:32:56;;;;;;;32.40;19.92;;;1.30;99.90;;;;;;5094372;28;20044;-75
2022/01/11 00:35:27;;;;;;;33.20;20.58;;;1.30;99.90;;;;;;5093591;28;20086;-75
2022/01/11 00:37:53;;;;;;;30.25;20.25;;;1.30;99.90;;;;;;5094417;28;20056;-77
2022/01/11 00:40:19;;;;;;;37.38;22.27;;;1.20;99.90;;;;;;5094671;28;20044;-75
2022/01/11 00:42:45;;;;;;;34.00;20.13;;;1.30;99.90;;;;;;5094456;28;20594;-75
2022/01/11 00:45:12;;;;;;;24.67;17.17;;;1.40;99.90;;;;;;5092969;28;20488;-75
2022/01/11 00:47:38;;;;;;;32.63;19.00;;;1.40;99.90;;;;;;5093107;28;20047;-75
2022/01/11 00:50:06;;;;;;;27.50;18.55;;;1.40;99.90;;;;;;5093954;28;20127;-75
2022/01/11 00:52:32;;;;;;;25.88;18.33;;;1.40;99.90;;;;;;5093221;28;20056;-75
2022/01/11 00:54:57;;;;;;;34.90;20.60;;;1.40;99.90;;;;;;5093897;28;20044;-75
2022/01/11 00:57:23;;;;;;;26.07;16.97;;;1.50;99.90;;;;;;5094205;28;20113;-74
2022/01/11 00:59:49;;;;;;;34.27;18.63;;;1.50;99.90;;;;;;5094221;28;20484;-74
2022/01/11 01:02:15;;;;;;;29.13;17.07;;;1.40;99.90;;;;;;5093608;28;20048;-75
2022/01/11 01:04:41;;;;;;;31.57;19.03;;;1.50;99.90;;;;;;5092922;28;20036;-74
2022/01/11 01:07:07;;;;;;;28.48;17.35;;;1.40;99.90;;;;;;5092596;28;20515;-75
2022/01/11 01:09:46;;;;;;;27.67;15.47;;;1.40;99.90;;;;;;5093951;28;20044;-75
2022/01/11 01:12:12;;;;;;;30.05;17.40;;;1.40;99.90;;;;;;5093591;28;20044;-75
2022/01/11 01:14:38;;;;;;;28.43;17.07;;;1.40;99.90;;;;;;5092535;28;20052;-75
2022/01/11 01:17:04;;;;;;;27.48;16.75;;;1.40;99.90;;;;;;5093143;28;20083;-75
2022/01/11 01:19:30;;;;;;;27.73;18.30;;;1.40;99.90;;;;;;5092770;28;20082;-75
2022/01/11 01:21:56;;;;;;;31.33;18.60;;;1.30;99.90;;;;;;5093602;28;20110;-75
2022/01/11 01:24:22;;;;;;;26.80;18.13;;;1.30;99.90;;;;;;5093375;28;20052;-75
2022/01/11 01:26:49;;;;;;;28.40;17.10;;;1.30;99.90;;;;;;5093217;28;20700;-75
2022/01/11 01:29:14;;;;;;;42.43;18.77;;;1.30;99.90;;;;;;5093297;28;20112;-75
2022/01/11 01:31:40;;;;;;;31.37;19.30;;;1.30;99.90;;;;;;5093712;28;20369;-75
2022/01/11 01:34:06;;;;;;;35.00;19.10;;;1.20;99.90;;;;;;5093236;28;20471;-75
2022/01/11 01:36:33;;;;;;;30.30;19.40;;;1.20;99.90;;;;;;5093176;28;20075;-75
2022/01/11 01:38:58;;;;;;;32.63;19.20;;;1.20;99.90;;;;;;5093523;28;20052;-75
2022/01/11 01:41:25;;;;;;;38.30;19.37;;;1.20;99.90;;;;;;5093025;28;20039;-75
2022/01/11 01:43:56;;;;;;;33.75;19.13;;;1.10;99.90;;;;;;5093319;28;20102;-75
2022/01/11 01:46:22;;;;;;;28.75;18.38;;;1.10;99.90;;;;;;5092806;28;20545;-75
2022/01/11 01:48:49;;;;;;;30.88;17.73;;;1.10;99.90;;;;;;5093237;28;20077;-75
2022/01/11 01:51:15;;;;;;;26.42;17.75;;;1.10;99.90;;;;;;5092885;28;20119;-75
2022/01/11 01:53:44;;;;;;;35.43;20.17;;;1.10;99.90;;;;;;5091971;28;20196;-75
2022/01/11 01:56:10;;;;;;;33.45;19.73;;;1.10;99.90;;;;;;5092861;28;20286;-75
2022/01/11 01:58:37;;;;;;;34.15;20.27;;;1.10;99.90;;;;;;5093132;28;20488;-74
2022/01/11 02:01:04;;;;;;;32.75;20.33;;;1.10;99.90;;;;;;5092660;28;20491;-77
2022/01/11 02:03:38;;;;;;;38.05;21.42;;;1.20;99.90;;;;;;5093136;28;20067;-74
2022/01/11 02:06:06;;;;;;;33.92;20.98;;;1.10;99.90;;;;;;5092927;28;20083;-75
2022/01/11 02:08:33;;;;;;;37.97;19.45;;;1.20;99.90;;;;;;5093242;28;20055;-74
2022/01/11 02:10:59;;;;;;;34.33;19.95;;;1.10;99.90;;;;;;5091920;28;20036;-74
2022/01/11 02:13:24;;;;;;;37.40;21.33;;;1.20;99.90;;;;;;5092656;28;20475;-74
2022/01/11 02:15:51;;;;;;;36.30;21.07;;;1.20;99.90;;;;;;5092886;28;20044;-74
2022/01/11 02:18:21;;;;;;;36.22;20.38;;;1.30;99.90;;;;;;5092575;28;20043;-75
2022/01/11 02:20:49;;;;;;;36.05;20.58;;;1.30;99.90;;;;;;5092780;28;20040;-74
2022/01/11 02:23:18;;;;;;;36.90;20.17;;;1.30;99.90;;;;;;5092552;28;20093;-75
2022/01/11 02:25:44;;;;;;;38.25;21.17;;;1.30;99.90;;;;;;5092576;28;20134;-74
2022/01/11 02:28:14;;;;;;;34.60;19.58;;;1.30;99.90;;;;;;5092557;28;20392;-74
2022/01/11 02:30:40;;;;;;;35.05;20.73;;;1.30;99.90;;;;;;5092780;28;20052;-74
2022/01/11 02:33:13;;;;;;;35.85;19.92;;;1.30;99.90;;;;;;5092909;28;20055;-74
2022/01/11 02:35:39;;;;;;;38.30;21.13;;;1.30;99.90;;;;;;5092773;28;20048;-74
2022/01/11 02:38:05;;;;;;;35.83;20.43;;;1.30;99.90;;;;;;5092986;28;20127;-74
2022/01/11 02:40:31;;;;;;;36.67;20.00;;;1.30;99.90;;;;;;5092367;28;20434;-74
2022/01/11 02:42:56;;;;;;;31.43;19.83;;;1.30;99.90;;;;;;5092801;28;20048;-74
2022/01/11 02:45:22;;;;;;;38.57;19.87;;;1.30;99.90;;;;;;5092437;28;20048;-74
2022/01/11 02:47:49;;;;;;;33.60;20.95;;;1.20;99.90;;;;;;5092794;28;20047;-74
2022/01/11 02:50:16;;;;;;;35.95;21.20;;;1.20;99.90;;;;;;5092302;28;20062;-75
2022/01/11 02:52:42;;;;;;;39.35;22.48;;;1.20;99.90;;;;;;5091534;28;20400;-75
2022/01/11 02:55:13;;;;;;;43.40;21.90;;;1.30;99.90;;;;;;5091477;28;20055;-74
2022/01/11 02:57:38;;;;;;;35.30;22.30;;;1.20;99.90;;;;;;5093127;28;20048;-74
2022/01/11 03:00:07;;;;;;;39.70;23.03;;;1.30;99.90;;;;;;5096386;28;20048;-74
2022/01/11 03:02:33;;;;;;;39.80;22.50;;;1.30;99.90;;;;;;5095963;28;20396;-75
2022/01/11 03:04:58;;;;;;;41.90;23.00;;;1.30;99.90;;;;;;5096345;28;20040;-74
2022/01/11 03:07:24;;;;;;;46.30;23.33;;;1.30;99.90;;;;;;5096029;28;20051;-75
2022/01/11 03:10:17;;;;;;;39.63;24.20;;;1.30;99.90;;;;;;5129416;27;20147;-75
2022/01/11 03:12:40;;;;;;;41.45;22.00;;;1.30;99.90;;;;;;5093909;28;20384;-74
2022/01/11 03:15:08;;;;;;;37.15;22.60;;;1.30;99.90;;;;;;5096380;28;20051;-74
2022/01/11 03:17:33;;;;;;;49.65;25.23;;;1.30;99.90;;;;;;5078270;28;20058;-74
2022/01/11 03:19:59;;;;;;;43.17;24.10;;;1.30;99.90;;;;;;5096239;28;20457;-74
2022/01/11 03:22:25;;;;;;;45.57;24.57;;;1.30;99.90;;;;;;5095636;28;20044;-74
2022/01/11 03:24:50;;;;;;;51.10;24.83;;;1.20;99.90;;;;;;5095856;28;20042;-73
2022/01/11 03:27:16;;;;;;;39.87;23.70;;;1.30;99.90;;;;;;5095368;28;20392;-75
2022/01/11 03:29:42;;;;;;;41.97;24.83;;;1.30;99.90;;;;;;5096114;28;20051;-74
2022/01/11 03:32:08;;;;;;;45.67;26.13;;;1.30;99.90;;;;;;5095814;28;20127;-74
2022/01/11 03:34:34;;;;;;;47.40;25.67;;;1.30;99.90;;;;;;5095467;28;20131;-75
2022/01/11 03:37:00;;;;;;;44.23;24.83;;;1.30;99.90;;;;;;5095811;28;20082;-74
2022/01/11 03:39:27;;;;;;;44.03;24.88;;;1.30;99.90;;;;;;5095337;28;20434;-74
2022/01/11 03:41:53;;;;;;;49.03;24.65;;;1.30;99.90;;;;;;5095525;28;20052;-74
2022/01/11 03:44:20;;;;;;;45.47;25.10;;;1.30;99.90;;;;;;5094114;28;20132;-75
2022/01/11 03:46:45;;;;;;;46.90;25.17;;;1.30;99.90;;;;;;5077667;28;20048;-74
2022/01/11 03:49:11;;;;;;;40.73;23.90;;;1.30;99.90;;;;;;5095568;28;20040;-74
2022/01/11 03:51:39;;;;;;;47.10;24.10;;;1.30;99.90;;;;;;5095151;28;20373;-74
2022/01/11 03:54:15;;;;;;;50.25;24.65;;;1.30;99.90;;;;;;5095100;28;20040;-74
2022/01/11 03:56:41;;;;;;;42.70;23.88;;;1.30;99.90;;;;;;5095106;28;20553;-74
2022/01/11 03:59:07;;;;;;;46.47;23.50;;;1.30;99.90;;;;;;5095301;28;20052;-74
2022/01/11 04:01:37;;;;;;;40.10;24.67;;;1.30;99.90;;;;;;5094868;28;20048;-74
2022/01/11 04:04:04;;;;;;;42.17;24.17;;;1.40;99.90;;;;;;5095224;28;20044;-74
2022/01/11 04:06:30;;;;;;;44.65;24.75;;;1.40;99.90;;;;;;5094936;28;20052;-74
2022/01/11 04:08:56;;;;;;;42.03;24.30;;;1.40;99.90;;;;;;5094753;28;20392;-74
2022/01/11 04:11:22;;;;;;;48.65;23.50;;;1.40;99.90;;;;;;5093067;28;20400;-74
2022/01/11 04:13:48;;;;;;;51.33;25.83;;;1.40;99.90;;;;;;5094976;28;20039;-74
2022/01/11 04:16:14;;;;;;;45.80;24.40;;;1.40;99.90;;;;;;5093969;28;20424;-74
2022/01/11 04:18:39;;;;;;;44.60;23.45;;;1.40;99.90;;;;;;5094502;28;20044;-74
2022/01/11 04:21:05;;;;;;;42.00;23.87;;;1.40;99.90;;;;;;5093553;28;20044;-74
2022/01/11 04:23:32;;;;;;;41.70;23.07;;;1.40;99.90;;;;;;5094312;28;20110;-74
2022/01/11 04:25:59;;;;;;;44.85;23.50;;;1.50;99.90;;;;;;5093359;28;20060;-74
2022/01/11 04:28:27;;;;;;;45.30;24.73;;;1.50;99.90;;;;;;5094420;28;20055;-75
2022/01/11 04:30:57;;;;;;;42.95;23.63;;;1.50;99.90;;;;;;5094781;28;20139;-74
2022/01/11 04:33:27;;;;;;;49.90;24.63;;;1.50;99.90;;;;;;5094541;28;20036;-75
2022/01/11 04:35:53;;;;;;;43.90;23.92;;;1.40;99.90;;;;;;5093649;28;20097;-74
2022/01/11 04:38:21;;;;;;;44.13;24.00;;;1.40;99.90;;;;;;5094615;28;20130;-74
2022/01/11 04:40:47;;;;;;;44.42;23.52;;;1.40;99.90;;;;;;5093896;28;20496;-74
2022/01/11 04:43:13;;;;;;;44.60;24.25;;;1.40;99.90;;;;;;5094463;28;20040;-74
2022/01/11 04:45:39;;;;;;;41.97;23.47;;;1.40;99.90;;;;;;5094107;28;20502;-74
2022/01/11 04:48:05;;;;;;;44.60;23.43;;;1.40;99.90;;;;;;5094342;28;20044;-74
2022/01/11 04:50:31;;;;;;;52.38;24.27;;;1.40;99.90;;;;;;5093949;28;20061;-75
2022/01/11 04:52:57;;;;;;;43.47;23.67;;;1.40;99.90;;;;;;5094209;28;20138;-74
2022/01/11 04:55:23;;;;;;;45.35;23.38;;;1.40;99.90;;;;;;5093268;28;20055;-74
2022/01/11 04:57:49;;;;;;;48.95;24.88;;;1.40;99.90;;;;;;5093774;28;20514;-74
2022/01/11 05:00:18;;;;;;;42.92;24.33;;;1.40;99.90;;;;;;5094092;28;20055;-74
2022/01/11 05:02:44;;;;;;;42.85;22.88;;;1.30;99.90;;;;;;5093722;28;20040;-74
2022/01/11 05:05:10;;;;;;;46.47;22.90;;;1.30;99.90;;;;;;5093136;28;20043;-74
2022/01/11 05:07:37;;;;;;;48.38;24.52;;;1.30;99.90;;;;;;5093700;28;20044;-74
2022/01/11 05:10:04;;;;;;;47.33;24.73;;;1.30;99.90;;;;;;5093673;28;20511;-74
2022/01/11 05:12:31;;;;;;;48.60;25.25;;;1.30;99.90;;;;;;5092678;28;20056;-75
2022/01/11 05:14:57;;;;;;;43.58;23.60;;;1.30;99.90;;;;;;5093776;28;20510;-74
2022/01/11 05:17:23;;;;;;;46.13;24.10;;;1.30;99.90;;;;;;5093781;28;20046;-74
2022/01/11 05:19:49;;;;;;;42.72;22.88;;;1.30;99.90;;;;;;5093494;28;20514;-74
2022/01/11 05:22:14;;;;;;;43.77;22.83;;;1.30;99.90;;;;;;5092129;28;20036;-74
2022/01/11 05:24:40;;;;;;;46.87;24.50;;;1.30;99.90;;;;;;5093465;28;20048;-74
2022/01/11 05:27:06;;;;;;;40.97;22.13;;;1.30;99.90;;;;;;5093796;28;20089;-75
2022/01/11 05:29:32;;;;;;;53.60;24.92;;;1.30;99.90;;;;;;5093312;28;20074;-75
2022/01/11 05:31:58;;;;;;;45.40;22.90;;;1.30;99.90;;;;;;5093923;28;20082;-74
2022/01/11 05:34:27;;;;;;;45.08;22.80;;;1.30;99.90;;;;;;5092586;28;20062;-73
2022/01/11 05:36:53;;;;;;;45.13;22.90;;;1.20;99.90;;;;;;5092899;28;20617;-73
2022/01/11 05:39:19;;;;;;;47.10;23.53;;;1.20;99.90;;;;;;5093624;28;20119;-73
2022/01/11 05:41:45;;;;;;;50.50;24.40;;;1.30;99.90;;;;;;5093050;28;20039;-73
2022/01/11 05:44:10;;;;;;;46.27;22.80;;;1.30;99.90;;;;;;5093355;28;20044;-73
2022/01/11 05:46:36;;;;;;;42.60;23.27;;;1.30;99.90;;;;;;5093077;28;20040;-74
2022/01/11 05:49:02;;;;;;;43.93;21.60;;;1.30;99.90;;;;;;5092045;28;20044;-74
2022/01/11 05:51:28;;;;;;;40.28;22.08;;;1.30;99.90;;;;;;5093268;28;20063;-74
2022/01/11 05:53:55;;;;;;;43.53;21.45;;;1.30;99.90;;;;;;5092985;28;20048;-74
2022/01/11 05:56:21;;;;;;;39.10;22.08;;;1.30;99.90;;;;;;5093230;28;20051;-72
2022/01/11 05:58:47;;;;;;;47.47;22.30;;;1.30;99.90;;;;;;5091867;28;20052;-73
2022/01/11 06:01:14;;;;;;;41.70;21.87;;;1.30;99.90;;;;;;5093045;28;20066;-73
2022/01/11 06:03:40;;;;;;;38.55;21.02;;;1.30;99.90;;;;;;5092788;28;20040;-73
2022/01/11 06:06:06;;;;;;;45.80;21.07;;;1.30;99.90;;;;;;5092990;28;20491;-73
2022/01/11 06:08:32;;;;;;;45.20;21.17;;;1.30;99.90;;;;;;5092149;28;20044;-73
2022/01/11 06:10:57;;;;;;;41.35;20.80;;;1.30;99.90;;;;;;5092763;28;20555;-73
2022/01/11 06:13:23;;;;;;;37.70;21.13;;;1.20;99.90;;;;;;5091844;28;20047;-73
2022/01/11 06:15:50;;;;;;;43.05;22.45;;;1.30;99.90;;;;;;5092766;28;20040;-73
2022/01/11 06:18:16;;;;;;;35.65;19.73;;;1.30;99.90;;;;;;5093003;28;20040;-70
2022/01/11 06:20:42;;;;;;;37.83;20.07;;;1.30;99.90;;;;;;5092578;28;20093;-71
2022/01/11 06:23:08;;;;;;;38.53;20.60;;;1.30;99.90;;;;;;5091749;28;20135;-71
2022/01/11 06:25:33;;;;;;;34.03;19.53;;;1.30;99.90;;;;;;5092304;28;20301;-69
2022/01/11 06:27:59;;;;;;;36.37;21.37;;;1.30;99.90;;;;;;5092603;28;20059;-73
2022/01/11 06:30:25;;;;;;;40.50;19.80;;;1.30;99.90;;;;;;5092873;28;20395;-74
2022/01/11 06:32:51;;;;;;;36.87;19.40;;;1.30;99.90;;;;;;5093204;28;20051;-73
2022/01/11 06:35:18;;;;;;;35.13;19.17;;;1.30;99.90;;;;;;5079179;28;20118;-74
2022/01/11 06:37:45;;;;;;;36.67;19.38;;;1.20;99.90;;;;;;5096365;28;20047;-73
2022/01/11 06:40:12;;;;;;;35.20;19.73;;;1.30;99.90;;;;;;5096737;28;20123;-71
2022/01/11 06:42:38;;;;;;;33.38;18.75;;;1.30;99.90;;;;;;5096376;28;20067;-74
2022/01/11 06:45:05;;;;;;;38.63;18.90;;;1.30;99.90;;;;;;5096651;28;20476;-71
2022/01/11 06:47:32;;;;;;;33.25;19.05;;;1.30;99.90;;;;;;5096594;28;20044;-73
2022/01/11 06:49:57;;;;;;;33.05;17.88;;;1.20;99.90;;;;;;5096264;28;20083;-71
2022/01/11 06:52:23;;;;;;;30.37;17.97;;;1.20;99.90;;;;;;5096127;28;20080;-71
2022/01/11 06:54:49;;;;;;;36.57;20.73;;;1.20;99.90;;;;;;5096576;28;20048;-72
2022/01/11 06:57:14;;;;;;;33.57;19.23;;;1.20;99.90;;;;;;5096720;28;20438;-71
2022/01/11 06:59:40;;;;;;;34.17;18.90;;;1.20;99.90;;;;;;5095292;28;20070;-72
2022/01/11 07:02:06;;;;;;;33.57;20.07;;;1.10;99.90;;;;;;5096522;28;20062;-71
2022/01/11 07:04:33;;;;;;;33.22;18.83;;;1.10;99.90;;;;;;5096642;28;20051;-71
2022/01/11 07:06:59;;;;;;;33.60;19.00;;;1.10;99.90;;;;;;5096284;28;20048;-71
2022/01/11 07:09:25;;;;;;;30.93;18.23;;;1.10;99.90;;;;;;5096702;28;20047;-72
2022/01/11 07:11:51;;;;;;;36.93;20.10;;;1.00;99.90;;;;;;5095004;28;20044;-72
2022/01/11 07:14:17;;;;;;;32.27;19.47;;;1.00;99.90;;;;;;5096298;28;20564;-72
2022/01/11 07:16:48;;;;;;;32.07;19.67;;;1.00;99.90;;;;;;5078211;28;20301;-72
2022/01/11 07:19:18;;;;;;;34.38;19.90;;;1.10;99.90;;;;;;5096577;28;20047;-71
2022/01/11 07:21:44;;;;;;;34.25;18.73;;;1.00;99.90;;;;;;5095887;28;20130;-72
2022/01/11 07:24:12;;;;;;;33.20;19.60;;;1.00;99.90;;;;;;5095557;28;20040;-72
2022/01/11 07:26:38;;;;;;;32.10;18.85;;;1.00;99.90;;;;;;5096202;28;20073;-71
2022/01/11 07:29:05;;;;;;;35.87;18.40;;;1.00;99.90;;;;;;5078061;28;20137;-72
2022/01/11 07:31:31;;;;;;;36.45;20.10;;;1.00;99.90;;;;;;5096156;28;20140;-71
2022/01/11 07:33:58;;;;;;;38.78;20.27;;;1.00;99.90;;;;;;5094453;28;20067;-72
2022/01/11 07:36:24;;;;;;;35.88;20.95;;;1.00;99.90;;;;;;5095575;28;20083;-71
2022/01/11 07:38:53;;;;;;;35.80;20.07;;;1.00;99.90;;;;;;5095574;28;20089;-71
2022/01/11 07:41:19;;;;;;;31.90;19.00;;;1.10;99.90;;;;;;5095640;28;20044;-72
2022/01/11 07:43:45;;;;;;;34.00;19.57;;;1.00;99.90;;;;;;5094339;28;20044;-71
2022/01/11 07:46:10;;;;;;;34.07;20.13;;;1.10;99.90;;;;;;5095719;28;20044;-71
2022/01/11 07:48:36;;;;;;;35.90;19.83;;;1.00;99.90;;;;;;5095638;28;20048;-72
2022/01/11 07:51:03;;;;;;;35.33;19.83;;;1.00;99.90;;;;;;5095281;28;20131;-74
2022/01/11 07:53:28;;;;;;;32.50;20.17;;;1.10;99.90;;;;;;5095467;28;20047;-74
2022/01/11 07:55:54;;;;;;;36.63;20.67;;;1.00;99.90;;;;;;5094102;28;20081;-74
2022/01/11 07:58:20;;;;;;;34.50;20.17;;;1.00;99.90;;;;;;5095732;28;20061;-74
2022/01/11 08:00:46;;;;;;;32.23;19.73;;;1.00;99.90;;;;;;5095412;28;20047;-74
2022/01/11 08:03:12;;;;;;;35.90;19.17;;;1.00;99.90;;;;;;5095187;28;20044;-74
2022/01/11 08:05:37;;;;;;;33.30;19.50;;;1.00;99.90;;;;;;5095337;28;20484;-71
2022/01/11 08:08:03;;;;;;;32.00;19.90;;;1.00;99.90;;;;;;5094798;28;20284;-72
2022/01/11 08:10:29;;;;;;;32.45;20.02;;;0.90;99.90;;;;;;5095197;28;20151;-74
2022/01/11 08:12:55;;;;;;;35.47;20.77;;;0.90;99.90;;;;;;5095089;28;20055;-74
2022/01/11 08:15:21;;;;;;;34.50;21.07;;;0.90;99.90;;;;;;5077438;28;20048;-72
2022/01/11 08:17:47;;;;;;;31.17;18.90;;;0.90;99.90;;;;;;5095020;28;20048;-71
2022/01/11 08:20:14;;;;;;;33.70;20.00;;;0.90;99.90;;;;;;5094930;28;20059;-73
2022/01/11 08:22:40;;;;;;;35.85;20.65;;;1.00;99.90;;;;;;5094975;28;20083;-73
2022/01/11 08:25:06;;;;;;;34.33;20.47;;;1.00;99.90;;;;;;5094587;28;20071;-72
2022/01/11 08:27:33;;;;;;;31.95;19.10;;;1.00;99.90;;;;;;5093346;28;20294;-72
2022/01/11 08:30:00;;;;;;;36.20;20.15;;;1.00;99.90;;;;;;5094670;28;20048;-72
2022/01/11 08:32:26;;;;;;;40.30;21.88;;;1.00;99.90;;;;;;5094792;28;20040;-72
2022/01/11 08:34:51;;;;;;;32.27;19.80;;;1.10;99.90;;;;;;5093642;28;20044;-73
2022/01/11 08:37:18;;;;;;;35.03;21.07;;;1.00;99.90;;;;;;5093836;28;20051;-72
2022/01/11 08:39:44;;;;;;;36.30;20.40;;;1.00;99.90;;;;;;5094854;28;20048;-72
2022/01/11 08:42:13;;;;;;;32.80;19.67;;;1.00;99.90;;;;;;5094352;28;20077;-72
2022/01/11 08:44:41;;;;;;;33.67;20.67;;;1.00;99.90;;;;;;5094544;28;20051;-72
2022/01/11 08:47:07;;;;;;;34.78;21.30;;;1.00;99.90;;;;;;5094317;28;20052;-72
2022/01/11 08:49:34;;;;;;;32.10;20.40;;;1.00;99.90;;;;;;5094743;28;20044;-72
2022/01/11 08:51:59;;;;;;;40.13;21.92;;;1.00;99.90;;;;;;5093267;28;20048;-72
2022/01/11 08:54:25;;;;;;;36.23;22.17;;;1.00;99.90;;;;;;5093524;28;20126;-72
2022/01/11 08:56:54;;;;;;;36.20;22.90;;;1.00;99.90;;;;;;5093763;28;20036;-72
2022/01/11 08:59:19;;;;;;;36.85;22.67;;;1.00;99.90;;;;;;5094589;28;20131;-72
2022/01/11 09:01:45;;;;;;;39.67;24.20;;;1.00;99.90;;;;;;5094415;28;20124;-72
2022/01/11 09:04:11;;;;;;;40.07;23.47;;;1.10;99.90;;;;;;5094073;28;20414;-72
2022/01/11 09:06:37;;;;;;;40.33;22.97;;;1.10;99.90;;;;;;5093425;28;20040;-72
2022/01/11 09:09:03;;;;;;;40.87;23.23;;;1.10;99.90;;;;;;5093932;28;20113;-72
2022/01/11 09:11:29;;;;;;;41.95;23.75;;;1.10;99.90;;;;;;5094118;28;20036;-72
2022/01/11 09:13:55;;;;;;;41.08;24.70;;;1.10;99.90;;;;;;5094072;28;20097;-72
2022/01/11 09:16:23;;;;;;;41.33;24.13;;;1.10;99.90;;;;;;5059493;28;20048;-72
2022/01/11 09:18:51;;;;;;;41.45;24.42;;;1.10;99.90;;;;;;5093898;28;20285;-72
2022/01/11 09:21:20;;;;;;;40.95;24.75;;;1.10;99.90;;;;;;5093611;28;20055;-72
2022/01/11 09:23:47;;;;;;;44.15;24.13;;;1.10;99.90;;;;;;5094068;28;20044;-72
2022/01/11 09:26:13;;;;;;;39.70;24.52;;;1.10;99.90;;;;;;5093282;28;20426;-72
2022/01/11 09:28:39;;;;;;;35.53;22.08;;;1.20;99.90;;;;;;5093443;28;20479;-72
2022/01/11 09:31:06;;;;;;;39.90;23.80;;;1.10;99.90;;;;;;5093608;28;20043;-72
2022/01/11 09:33:32;;;;;;;40.58;23.38;;;1.10;99.90;;;;;;5093802;28;20141;-72
2022/01/11 09:35:58;;;;;;;41.50;24.65;;;1.20;99.90;;;;;;5093737;28;20135;-72
2022/01/11 09:38:25;;;;;;;38.78;23.75;;;1.20;99.90;;;;;;5093729;28;20113;-72
2022/01/11 09:40:53;;;;;;;39.30;24.58;;;1.10;99.90;;;;;;5093545;28;20589;-72
2022/01/11 09:43:21;;;;;;;43.40;25.08;;;1.20;99.90;;;;;;5092461;28;20055;-72
2022/01/11 09:45:48;;;;;;;46.97;25.52;;;1.20;99.90;;;;;;5093572;28;20055;-72
2022/01/11 09:48:14;;;;;;;45.03;26.05;;;1.20;99.90;;;;;;5093332;28;20088;-72
2022/01/11 09:50:40;;;;;;;45.63;26.15;;;1.20;99.90;;;;;;5075527;28;20056;-72
2022/01/11 09:53:06;;;;;;;42.83;26.43;;;1.30;99.90;;;;;;5093315;28;20052;-72
2022/01/11 09:55:32;;;;;;;42.65;25.17;;;1.30;99.90;;;;;;5093536;28;20116;-72
2022/01/11 09:57:58;;;;;;;44.83;23.97;;;1.40;99.90;;;;;;5093412;28;20456;-72
2022/01/11 10:00:23;;;;;;;45.23;27.90;;;1.40;99.90;;;;;;5093184;28;20048;-72
2022/01/11 10:02:49;;;;;;;45.27;25.67;;;1.40;99.90;;;;;;5093481;28;20395;-72
2022/01/11 10:05:15;;;;;;;41.40;25.43;;;1.40;99.90;;;;;;5092204;28;20044;-72
2022/01/11 10:07:42;;;;;;;43.90;26.33;;;1.50;99.90;;;;;;5093296;28;20496;-72
2022/01/11 10:10:17;;;;;;;48.05;26.90;;;1.50;99.90;;;;;;5093136;28;20048;-72
2022/01/11 10:12:50;;;;;;;43.28;25.88;;;1.50;99.90;;;;;;5093986;28;20123;-72
2022/01/11 10:15:26;;;;;;;40.33;24.80;;;1.50;99.90;;;;;;5091858;28;20093;-72
2022/01/11 10:17:52;;;;;;;44.20;25.83;;;1.60;99.90;;;;;;5092271;28;20140;-72
2022/01/11 10:20:21;;;;;;;40.10;24.65;;;1.50;99.90;;;;;;5092915;28;20085;-72
2022/01/11 10:22:59;;;;;;;40.70;25.27;;;1.60;99.90;;;;;;5093069;28;20127;-72
2022/01/11 10:25:26;;;;;;;38.30;23.63;;;;;;;;;;5092712;28;20066;-71
2022/01/11 10:27:54;;;;;;;38.55;25.25;;;;;;;;;;5093259;28;20052;-72
2022/01/11 10:30:23;;;;;;;41.13;25.45;;;1.80;99.90;;;;;;5092796;28;20044;-72
2022/01/11 10:32:51;;;;;;;38.38;24.27;;;1.90;99.90;;;;;;5092795;28;20395;-72
2022/01/11 10:35:23;;;;;;;35.75;23.30;;;1.90;99.90;;;;;;5091596;28;20377;-71
2022/01/11 10:37:54;;;;;;;39.10;25.25;;;1.90;99.90;;;;;;5093162;28;20084;-72
2022/01/11 10:40:23;;;;;;;36.35;24.75;;;2.00;99.90;;;;;;5092409;28;20491;-72
2022/01/11 10:42:52;;;;;;;38.40;23.63;;;2.10;99.90;;;;;;5092771;28;20048;-72
2022/01/11 10:45:20;;;;;;;36.63;23.58;;;2.10;99.90;;;;;;5091425;28;20055;-72
2022/01/11 10:47:49;;;;;;;33.63;22.52;;;2.20;99.90;;;;;;5093237;28;20127;-71
2022/01/11 10:50:22;;;;;;;33.63;22.55;;;2.30;99.90;;;;;;5092661;28;20376;-72
2022/01/11 10:52:48;;;;;;;38.15;24.20;;;2.30;99.90;;;;;;5093038;28;20388;-72
2022/01/11 10:55:20;;;;;;;33.67;23.17;;;2.40;99.90;;;;;;5092632;28;20123;-72
2022/01/11 10:57:59;;;;;;;34.45;23.60;;;2.40;99.90;;;;;;5092856;28;20044;-72
2022/01/11 11:00:29;;;;;;;35.28;24.17;;;2.50;99.90;;;;;;5092619;28;20040;-72
2022/01/11 11:03:09;;;;;;;36.13;23.00;;;2.50;99.90;;;;;;5092923;28;20379;-72
2022/01/11 11:05:41;;;;;;;34.15;22.38;;;2.60;99.90;;;;;;5093161;28;20040;-72
2022/01/11 11:08:12;;;;;;;36.20;23.33;;;2.60;99.90;;;;;;5092822;28;20051;-72
2022/01/11 11:10:43;;;;;;;34.65;22.58;;;2.70;99.90;;;;;;5092789;28;20036;-72
2022/01/11 11:13:15;;;;;;;34.45;23.83;;;2.70;99.90;;;;;;5091858;28;20059;-72
2022/01/11 11:15:41;;;;;;;34.25;22.70;;;2.70;99.90;;;;;;5091839;28;20048;-72
2022/01/11 11:18:21;;;;;;;32.77;22.37;;;2.80;99.90;;;;;;5092683;28;20480;-72
2022/01/11 11:20:47;;;;;;;30.92;22.33;;;2.80;99.90;;;;;;5096270;28;20093;-72
2022/01/11 11:23:14;;;;;;;34.47;22.83;;;2.80;99.90;;;;;;5096217;28;20060;-73
2022/01/11 11:25:40;;;;;;;34.72;23.58;;;2.80;99.90;;;;;;5096119;28;20383;-72
2022/01/11 11:28:07;;;;;;;33.13;23.30;;;2.80;99.90;;;;;;5095422;28;20048;-72
2022/01/11 11:30:33;;;;;;;35.72;22.13;;;2.90;99.90;;;;;;5095951;28;20134;-72
2022/01/11 11:33:01;;;;;;;34.33;21.60;;;2.90;99.90;;;;;;5096089;28;20474;-72
2022/01/11 11:35:28;;;;;;;37.20;23.45;;;3.00;99.90;;;;;;5094821;28;20074;-73
2022/01/11 11:37:59;;;;;;;33.15;22.17;;;3.00;99.90;;;;;;5096000;28;20106;-72
2022/01/11 11:40:27;;;;;;;33.10;20.85;;;3.00;99.90;;;;;;5095681;28;20047;-72
2022/01/11 11:43:02;;;;;;;33.75;22.35;;;3.00;99.90;;;;;;5095943;28;20048;-72
2022/01/11 11:45:39;;;;;;;33.50;21.77;;;3.10;99.90;;;;;;5095640;28;20454;-72
2022/01/11 11:48:10;;;;;;;29.45;20.05;;;3.10;99.90;;;;;;5096099;28;20047;-72
2022/01/11 11:50:49;;;;;;;31.83;20.52;;;3.10;99.90;;;;;;5095476;28;20051;-72
2022/01/11 11:53:35;;;;;;;34.80;22.13;;;3.20;99.90;;;;;;5095501;28;20043;-73
2022/01/11 11:56:17;;;;;;;32.13;19.65;;;3.10;99.90;;;;;;5095650;28;20044;-72
2022/01/11 11:58:47;;;;;;;31.10;20.40;;;3.20;99.90;;;;;;5095556;28;20059;-72
2022/01/11 12:01:41;;;;;;;30.75;19.80;;;3.20;99.90;;;;;;5094374;28;20040;-72
2022/01/11 12:04:36;;;;;;;30.88;20.23;;;3.20;99.90;;;;;;5095684;28;20110;-72
2022/01/11 12:07:27;;;;;;;32.50;19.95;;;3.20;99.90;;;;;;5095057;28;20399;-72
2022/01/11 12:09:52;;;;;;;28.15;20.08;;;3.20;99.90;;;;;;5095324;28;20055;-72
2022/01/11 12:12:41;;;;;;;34.27;21.27;;;3.20;99.90;;;;;;5095167;28;20168;-72
2022/01/11 12:15:21;;;;;;;31.70;20.80;;;3.20;99.90;;;;;;5095464;28;20161;-72
2022/01/11 12:17:59;;;;;;;30.13;20.55;;;3.20;99.90;;;;;;5095440;28;20055;-72
2022/01/11 12:20:48;;;;;;;30.98;20.15;;;3.20;99.90;;;;;;5093811;28;20044;-72
2022/01/11 12:23:38;;;;;;;29.75;19.27;;;3.20;99.90;;;;;;5095167;28;20097;-72
2022/01/11 12:26:22;;;;;;;31.55;20.63;;;3.30;99.90;;;;;;5093481;28;20058;-72
2022/01/11 12:29:03;;;;;;;33.38;21.10;;;3.30;99.90;;;;;;5094345;28;20055;-72
2022/01/11 12:31:39;;;;;;;30.48;19.92;;;3.30;99.90;;;;;;5092728;28;20048;-72
2022/01/11 12:34:09;;;;;;;27.85;19.88;;;3.30;99.90;;;;;;5094843;28;20135;-72
2022/01/11 12:37:02;;;;;;;31.02;18.73;;;3.30;99.90;;;;;;5094579;28;20048;-72
2022/01/11 12:39:30;;;;;;;28.92;18.33;;;3.40;99.90;;;;;;5094699;28;20539;-72
2022/01/11 12:41:57;;;;;;;31.30;18.77;;;3.40;99.90;;;;;;5094643;28;20086;-72